createdAt,value
2023-01-02T00:01:31.400Z,6.70
2023-01-02T00:03:58.594Z,6.80
2023-01-02T00:06:25.595Z,6.80
2023-01-02T00:08:52.577Z,6.80
2023-01-02T00:11:24.230Z,6.80
2023-01-02T00:13:53.797Z,6.80
2023-01-02T00:16:25.760Z,6.70
2023-01-02T00:18:53.917Z,6.60
2023-01-02T00:21:21.104Z,6.50
2023-01-02T00:23:50.200Z,6.40
2023-01-02T00:26:19.391Z,6.30
2023-01-02T00:28:46.433Z,6.30
2023-01-02T00:31:14.530Z,6.30
2023-01-02T00:33:42.002Z,6.30
2023-01-02T00:36:11.567Z,6.20
2023-01-02T00:38:39.281Z,6.10
2023-01-02T00:41:11.709Z,6.10
2023-01-02T00:43:40.074Z,6.00
2023-01-02T00:46:11.468Z,6.00
2023-01-02T00:48:41.733Z,5.90
2023-01-02T00:51:09.121Z,5.90
2023-01-02T00:53:36.449Z,5.70
2023-01-02T00:56:03.937Z,5.70
2023-01-02T00:58:30.943Z,5.50
2023-01-02T01:00:57.943Z,5.50
2023-01-02T01:03:32.177Z,5.40
2023-01-02T01:06:12.336Z,5.30
2023-01-02T01:08:39.211Z,5.30
2023-01-02T01:11:12.335Z,5.20
2023-01-02T01:13:41.774Z,5.20
2023-01-02T01:16:12.196Z,5.20
2023-01-02T01:18:39.614Z,5.10
2023-01-02T01:21:18.252Z,5.10
2023-01-02T01:23:56.264Z,5.10
2023-01-02T01:26:23.549Z,5.10
2023-01-02T01:28:54.208Z,5.10
2023-01-02T01:31:26.555Z,5.10
2023-01-02T01:33:58.427Z,5.10
2023-01-02T01:36:25.784Z,5.10
2023-01-02T01:38:52.907Z,5.10
2023-01-02T01:41:23.192Z,5.20
2023-01-02T01:44:01.734Z,5.20
2023-01-02T01:46:38.612Z,5.20
2023-01-02T01:49:41.363Z,5.30
2023-01-02T01:52:13.453Z,5.30
2023-01-02T01:54:47.067Z,5.30
2023-01-02T01:57:28.169Z,5.30
2023-01-02T01:59:57.300Z,5.30
2023-01-02T02:02:26.859Z,5.30
2023-01-02T02:04:59.463Z,5.30
2023-01-02T02:07:27.499Z,5.40
2023-01-02T02:10:01.892Z,5.40
2023-01-02T02:12:29.782Z,5.40
2023-01-02T02:14:58.809Z,5.40
2023-01-02T02:18:07.133Z,5.40
2023-01-02T02:20:39.115Z,5.30
2023-01-02T02:23:26.736Z,5.30
2023-01-02T02:26:01.987Z,5.30
2023-01-02T02:28:47.816Z,5.20
2023-01-02T02:31:27.162Z,5.20
2023-01-02T02:34:30.161Z,5.20
2023-01-02T02:37:12.632Z,5.20
2023-01-02T02:39:44.341Z,5.20
2023-01-02T02:42:14.129Z,5.30
2023-01-02T02:44:47.485Z,5.40
2023-01-02T02:47:42.737Z,5.40
2023-01-02T02:50:35.418Z,5.40
2023-01-02T02:53:09.825Z,5.40
2023-01-02T02:55:46.555Z,5.40
2023-01-02T02:58:18.651Z,5.40
2023-01-02T03:00:45.913Z,5.30
2023-01-02T03:03:20.452Z,5.30
2023-01-02T03:06:22.464Z,5.20
2023-01-02T03:09:13.844Z,5.20
2023-01-02T03:11:56.603Z,5.20
2023-01-02T03:14:41.792Z,5.20
2023-01-02T03:17:20.054Z,5.20
2023-01-02T03:19:55.108Z,5.20
2023-01-02T03:22:31.764Z,5.20
2023-01-02T03:25:01.858Z,5.20
2023-01-02T03:27:34.559Z,5.10
2023-01-02T03:30:08.915Z,5.10
2023-01-02T03:32:43.656Z,5.00
2023-01-02T03:35:24.590Z,5.00
2023-01-02T03:37:58.706Z,5.00
2023-01-02T03:40:42.928Z,5.00
2023-01-02T03:43:23.214Z,5.00
2023-01-02T03:46:16.150Z,5.00
2023-01-02T03:48:52.003Z,5.00
2023-01-02T03:51:19.233Z,5.00
2023-01-02T03:53:47.957Z,4.90
2023-01-02T03:56:23.931Z,4.90
2023-01-02T03:58:56.780Z,4.90
2023-01-02T04:01:45.655Z,4.90
2023-01-02T04:04:26.598Z,4.90
2023-01-02T04:07:04.537Z,4.90
2023-01-02T04:09:36.047Z,5.00
2023-01-02T04:12:10.419Z,5.00
2023-01-02T04:14:46.875Z,5.00
2023-01-02T04:17:16.638Z,5.10
2023-01-02T04:19:52.170Z,5.10
2023-01-02T04:22:28.325Z,5.10
2023-01-02T04:25:13.729Z,5.10
2023-01-02T04:27:54.460Z,5.10
2023-01-02T04:30:21.708Z,5.20
2023-01-02T04:32:51.467Z,5.20
2023-01-02T04:35:24.343Z,5.10
2023-01-02T04:37:51.541Z,5.10
2023-01-02T04:40:18.564Z,5.00
2023-01-02T04:42:45.880Z,5.00
2023-01-02T04:45:13.105Z,5.00
2023-01-02T04:47:42.311Z,5.10
2023-01-02T04:50:14.556Z,5.10
2023-01-02T04:52:41.624Z,5.00
2023-01-02T04:55:11.847Z,4.90
2023-01-02T04:57:38.872Z,4.90
2023-01-02T05:00:09.918Z,4.80
2023-01-02T05:02:41.069Z,4.80
2023-01-02T05:05:09.353Z,4.70
2023-01-02T05:07:37.719Z,4.70
2023-01-02T05:10:07.157Z,4.60
2023-01-02T05:12:39.041Z,4.60
2023-01-02T05:15:07.778Z,4.60
2023-01-02T05:17:41.602Z,4.60
2023-01-02T05:20:13.395Z,4.60
2023-01-02T05:23:02.578Z,4.60
2023-01-02T05:25:33.213Z,4.60
2023-01-02T05:28:00.979Z,4.70
2023-01-02T05:30:27.936Z,4.70
2023-01-02T05:32:57.396Z,4.70
2023-01-02T05:35:28.624Z,4.70
2023-01-02T05:38:06.155Z,4.70
2023-01-02T05:40:33.366Z,4.80
2023-01-02T05:43:00.679Z,4.70
2023-01-02T05:45:30.738Z,4.70
2023-01-02T05:47:57.942Z,4.80
2023-01-02T05:50:24.995Z,4.80
2023-01-02T05:52:51.910Z,4.70
2023-01-02T05:55:21.896Z,4.70
2023-01-02T05:57:48.873Z,4.60
2023-01-02T06:00:18.360Z,4.60
2023-01-02T06:02:48.211Z,4.60
2023-01-02T06:05:15.857Z,4.60
2023-01-02T06:07:42.890Z,4.60
2023-01-02T06:10:10.123Z,4.50
2023-01-02T06:12:37.315Z,4.50
2023-01-02T06:15:06.974Z,4.50
2023-01-02T06:17:34.471Z,4.40
2023-01-02T06:20:04.033Z,4.40
2023-01-02T06:22:30.947Z,4.30
2023-01-02T06:24:57.828Z,4.30
2023-01-02T06:27:24.808Z,4.30
2023-01-02T06:29:53.902Z,4.30
2023-01-02T06:32:20.908Z,4.30
2023-01-02T06:34:52.035Z,4.30
2023-01-02T06:37:21.172Z,4.30
2023-01-02T06:39:48.121Z,4.40
2023-01-02T06:42:17.308Z,4.40
2023-01-02T06:44:44.221Z,4.40
2023-01-02T06:47:13.468Z,4.40
2023-01-02T06:49:40.402Z,4.40
2023-01-02T06:52:07.312Z,4.40
2023-01-02T06:54:34.378Z,4.40
2023-01-02T06:57:01.341Z,4.40
2023-01-02T06:59:28.316Z,4.50
2023-01-02T07:01:55.396Z,4.50
2023-01-02T07:04:22.362Z,4.50
2023-01-02T07:06:49.323Z,4.50
2023-01-02T07:09:24.320Z,4.50
2023-01-02T07:11:51.317Z,4.50
2023-01-02T07:14:20.798Z,4.50
2023-01-02T07:16:47.851Z,4.50
2023-01-02T07:19:14.897Z,4.50
2023-01-02T07:21:44.114Z,4.50
2023-01-02T07:24:15.438Z,4.50
2023-01-02T07:26:42.894Z,4.50
2023-01-02T07:29:09.848Z,4.60
2023-01-02T07:31:36.829Z,4.60
2023-01-02T07:34:03.762Z,4.60
2023-01-02T07:36:33.717Z,4.70
2023-01-02T07:39:03.327Z,4.70
2023-01-02T07:41:32.794Z,4.70
2023-01-02T07:43:59.766Z,4.80
2023-01-02T07:46:26.901Z,4.80
2023-01-02T07:48:53.912Z,4.90
2023-01-02T07:51:27.266Z,4.90
2023-01-02T07:53:58.408Z,4.90
2023-01-02T07:56:27.635Z,5.00
2023-01-02T07:58:59.705Z,5.00
2023-01-02T08:01:26.716Z,5.10
2023-01-02T08:03:56.480Z,5.10
2023-01-02T08:06:26.154Z,5.10
2023-01-02T08:08:53.223Z,5.20
2023-01-02T08:11:22.982Z,5.30
2023-01-02T08:13:52.352Z,5.30
2023-01-02T08:16:23.160Z,5.30
2023-01-02T08:18:55.492Z,5.40
2023-01-02T08:21:26.327Z,5.50
2023-01-02T08:23:53.857Z,5.60
2023-01-02T08:26:21.017Z,5.70
2023-01-02T08:28:48.056Z,5.80
2023-01-02T08:31:18.082Z,5.90
2023-01-02T08:33:45.404Z,6.00
2023-01-02T08:36:14.969Z,6.00
2023-01-02T08:38:44.520Z,6.10
2023-01-02T08:41:13.570Z,6.20
2023-01-02T08:43:43.104Z,6.30
2023-01-02T08:46:12.499Z,6.30
2023-01-02T08:48:39.483Z,6.30
2023-01-02T08:51:10.919Z,6.30
2023-01-02T08:53:37.932Z,6.40
2023-01-02T08:56:26.355Z,6.50
2023-01-02T08:59:02.684Z,6.50
2023-01-02T09:01:35.910Z,6.60
2023-01-02T09:04:11.568Z,6.60
2023-01-02T09:06:39.365Z,6.60
2023-01-02T09:09:11.416Z,6.50
2023-01-02T09:11:50.559Z,6.50
2023-01-02T09:14:20.189Z,6.50
2023-01-02T09:16:50.784Z,6.50
2023-01-02T09:19:18.214Z,6.50
2023-01-02T09:21:45.480Z,6.50
2023-01-02T09:24:12.379Z,6.50
2023-01-02T09:26:41.811Z,6.60
2023-01-02T09:29:09.833Z,6.70
2023-01-02T09:31:37.034Z,6.90
2023-01-02T09:34:04.203Z,7.00
2023-01-02T09:36:32.363Z,7.20
2023-01-02T09:39:01.480Z,7.40
2023-01-02T09:41:48.678Z,7.40
2023-01-02T09:44:21.679Z,7.60
2023-01-02T09:47:14.661Z,7.60
2023-01-02T09:49:57.483Z,7.50
2023-01-02T09:52:41.432Z,7.60
2023-01-02T09:55:21.465Z,7.70
2023-01-02T09:58:01.602Z,7.80
2023-01-02T10:00:35.485Z,8.00
2023-01-02T10:03:12.308Z,8.10
2023-01-02T10:05:58.984Z,8.20
2023-01-02T10:08:51.710Z,8.20
2023-01-02T10:11:52.240Z,8.30
2023-01-02T10:14:46.331Z,8.40
2023-01-02T10:17:17.443Z,8.50
2023-01-02T10:19:44.490Z,8.60
2023-01-02T10:22:20.768Z,8.60
2023-01-02T10:25:22.396Z,8.80
2023-01-02T10:28:12.811Z,8.90
2023-01-02T10:30:50.557Z,8.90
2023-01-02T10:33:51.342Z,9.10
2023-01-02T10:36:33.507Z,9.10
2023-01-02T10:39:06.994Z,9.20
2023-01-02T10:41:37.084Z,9.30
2023-01-02T10:44:35.419Z,9.40
2023-01-02T10:47:23.048Z,9.40
2023-01-02T10:49:55.938Z,9.50
2023-01-02T10:52:29.801Z,9.50
2023-01-02T10:55:00.730Z,9.50
2023-01-02T10:57:51.209Z,9.40
2023-01-02T11:00:22.555Z,9.50
2023-01-02T11:03:02.938Z,9.60
2023-01-02T11:05:31.960Z,9.70
2023-01-02T11:08:01.433Z,9.80
2023-01-02T11:10:35.197Z,9.80
2023-01-02T11:13:14.683Z,9.80
2023-01-02T11:15:51.444Z,9.80
2023-01-02T11:18:26.581Z,9.80
2023-01-02T11:21:04.219Z,9.80
2023-01-02T11:23:36.723Z,9.90
2023-01-02T11:26:07.347Z,10.00
2023-01-02T11:28:35.704Z,10.20
2023-01-02T11:31:14.305Z,10.50
2023-01-02T11:33:45.746Z,10.90
2023-01-02T11:36:12.684Z,11.20
2023-01-02T11:38:51.427Z,11.50
2023-01-02T11:41:47.295Z,11.80
2023-01-02T11:44:42.816Z,12.00
2023-01-02T11:47:12.754Z,12.40
2023-01-02T11:49:48.685Z,12.60
2023-01-02T11:52:31.010Z,12.90
2023-01-02T11:55:08.608Z,13.00
2023-01-02T11:57:44.827Z,13.10
2023-01-02T12:00:21.686Z,13.20
2023-01-02T12:02:54.270Z,13.30
2023-01-02T12:05:42.931Z,13.40
2023-01-02T12:08:43.275Z,13.60
2023-01-02T12:11:34.125Z,13.60
2023-01-02T12:14:23.608Z,13.90
2023-01-02T12:17:16.864Z,14.10
2023-01-02T12:20:22.352Z,14.10
2023-01-02T12:23:23.790Z,14.30
2023-01-02T12:26:07.186Z,14.50
2023-01-02T12:28:56.477Z,14.70
2023-01-02T12:31:53.399Z,14.90
2023-01-02T12:34:20.684Z,14.90
2023-01-02T12:37:14.243Z,15.00
2023-01-02T12:40:11.401Z,14.90
2023-01-02T12:43:11.944Z,14.80
2023-01-02T12:46:06.449Z,14.70
2023-01-02T12:48:39.076Z,14.80
2023-01-02T12:51:21.161Z,14.80
2023-01-02T12:54:20.230Z,14.80
2023-01-02T12:57:21.697Z,14.90
2023-01-02T12:59:49.212Z,15.10
2023-01-02T13:02:54.018Z,15.20
2023-01-02T13:05:27.749Z,15.20
2023-01-02T13:08:08.759Z,15.20
2023-01-02T13:10:35.974Z,15.10
2023-01-02T13:13:03.095Z,15.00
2023-01-02T13:15:36.338Z,14.80
2023-01-02T13:18:19.554Z,14.70
2023-01-02T13:20:53.601Z,14.60
2023-01-02T13:23:35.200Z,14.50
2023-01-02T13:26:10.754Z,14.50
2023-01-02T13:29:19.968Z,14.50
2023-01-02T13:31:54.174Z,14.50
2023-01-02T13:34:33.172Z,14.60
2023-01-02T13:37:15.901Z,14.60
2023-01-02T13:39:42.937Z,14.70
2023-01-02T13:42:54.565Z,14.80
2023-01-02T13:45:32.888Z,14.80
2023-01-02T13:48:05.974Z,14.80
2023-01-02T13:50:40.716Z,14.80
2023-01-02T13:53:11.190Z,14.70
2023-01-02T13:55:43.470Z,14.70
2023-01-02T13:58:15.032Z,14.70
2023-01-02T14:01:06.034Z,14.60
2023-01-02T14:03:36.846Z,14.50
2023-01-02T14:06:28.826Z,14.50
2023-01-02T14:09:05.277Z,14.50
2023-01-02T14:11:56.975Z,14.40
2023-01-02T14:14:42.575Z,14.40
2023-01-02T14:17:25.566Z,14.30
2023-01-02T14:20:18.408Z,14.20
2023-01-02T14:22:49.818Z,14.10
2023-01-02T14:25:20.070Z,14.10
2023-01-02T14:28:04.702Z,14.00
2023-01-02T14:30:31.564Z,13.90
2023-01-02T14:33:03.100Z,13.90
2023-01-02T14:35:39.694Z,13.80
2023-01-02T14:38:15.204Z,13.70
2023-01-02T14:40:46.831Z,13.60
2023-01-02T14:43:35.916Z,13.60
2023-01-02T14:46:23.911Z,13.60
2023-01-02T14:49:25.708Z,13.50
2023-01-02T14:52:00.256Z,13.50
2023-01-02T14:54:33.231Z,13.40
2023-01-02T14:57:27.727Z,13.40
2023-01-02T14:59:58.659Z,13.30
2023-01-02T15:02:39.502Z,13.30
2023-01-02T15:05:21.871Z,13.20
2023-01-02T15:07:56.572Z,13.10
2023-01-02T15:10:26.319Z,13.10
2023-01-02T15:13:04.740Z,13.00
2023-01-02T15:15:45.441Z,13.00
2023-01-02T15:18:19.495Z,13.00
2023-01-02T15:21:01.119Z,12.90
2023-01-02T15:23:30.424Z,12.90
2023-01-02T15:26:31.920Z,12.80
2023-01-02T15:28:53.924Z,12.80
2023-01-02T15:31:20.915Z,12.70
2023-01-02T15:33:56.274Z,12.60
2023-01-02T15:36:44.535Z,12.60
2023-01-02T15:39:19.612Z,12.60
2023-01-02T15:41:52.558Z,12.50
2023-01-02T15:44:46.399Z,12.50
2023-01-02T15:47:14.559Z,12.50
2023-01-02T15:49:44.453Z,12.50
2023-01-02T15:52:31.073Z,12.50
2023-01-02T15:55:00.976Z,12.40
2023-01-02T15:57:34.341Z,12.30
2023-01-02T16:00:06.068Z,12.40
2023-01-02T16:02:44.800Z,12.60
2023-01-02T16:05:17.380Z,12.60
2023-01-02T16:07:55.837Z,12.50
2023-01-02T16:10:25.832Z,12.50
2023-01-02T16:13:25.152Z,12.40
2023-01-02T16:16:16.172Z,12.30
2023-01-02T16:18:48.477Z,12.20
2023-01-02T16:21:18.342Z,12.10
2023-01-02T16:23:51.598Z,12.10
2023-01-02T16:26:20.697Z,12.10
2023-01-02T16:28:53.281Z,12.00
2023-01-02T16:31:25.448Z,12.00
2023-01-02T16:33:54.832Z,12.00
2023-01-02T16:36:29.760Z,12.00
2023-01-02T16:39:02.619Z,11.90
2023-01-02T16:41:37.355Z,11.80
2023-01-02T16:44:15.861Z,11.80
2023-01-02T16:46:46.033Z,11.70
2023-01-02T16:49:22.012Z,11.70
2023-01-02T16:51:52.843Z,11.70
2023-01-02T16:54:20.508Z,11.60
2023-01-02T16:56:50.663Z,11.50
2023-01-02T16:59:17.658Z,11.50
2023-01-02T17:01:46.942Z,11.50
2023-01-02T17:04:14.845Z,11.50
2023-01-02T17:06:44.332Z,11.50
2023-01-02T17:09:18.401Z,11.50
2023-01-02T17:12:01.074Z,11.40
2023-01-02T17:14:30.223Z,11.50
2023-01-02T17:16:57.907Z,11.50
2023-01-02T17:19:32.085Z,11.50
2023-01-02T17:21:59.292Z,11.50
2023-01-02T17:24:28.851Z,11.50
2023-01-02T17:26:58.415Z,11.50
2023-01-02T17:29:25.419Z,11.50
2023-01-02T17:31:52.497Z,11.50
2023-01-02T17:34:19.469Z,11.50
2023-01-02T17:36:48.728Z,11.40
2023-01-02T17:39:16.045Z,11.40
2023-01-02T17:41:43.068Z,11.50
2023-01-02T17:44:10.117Z,11.50
2023-01-02T17:49:24.323Z,11.40
2023-01-02T17:51:51.378Z,11.40
2023-01-02T17:54:20.712Z,11.30
2023-01-02T17:56:47.933Z,11.30
2023-01-02T17:59:19.261Z,11.20
2023-01-02T18:01:50.541Z,11.20
2023-01-02T18:04:20.218Z,11.10
2023-01-02T18:06:47.558Z,11.00
2023-01-02T18:09:14.580Z,11.00
2023-01-02T18:11:42.990Z,11.00
2023-01-02T18:14:24.999Z,11.10
2023-01-02T18:16:54.510Z,11.00
2023-01-02T18:19:24.533Z,11.00
2023-01-02T18:21:54.580Z,11.10
2023-01-02T18:24:31.277Z,11.10
2023-01-02T18:27:19.757Z,11.10
2023-01-02T18:29:54.648Z,11.10
2023-01-02T18:32:32.119Z,11.00
2023-01-02T18:35:10.960Z,11.00
2023-01-02T18:37:49.678Z,11.00
2023-01-02T18:40:29.231Z,11.10
2023-01-02T18:43:22.953Z,11.00
2023-01-02T18:45:54.588Z,11.10
2023-01-02T18:48:24.059Z,11.10
2023-01-02T18:51:03.232Z,11.10
2023-01-02T18:53:36.019Z,11.10
2023-01-02T18:56:24.334Z,11.00
2023-01-02T18:58:57.858Z,10.90
2023-01-02T19:01:35.605Z,10.90
2023-01-02T19:04:28.138Z,10.70
2023-01-02T19:07:12.813Z,10.70
2023-01-02T19:09:39.850Z,10.60
2023-01-02T19:12:45.877Z,10.60
2023-01-02T19:16:09.274Z,10.60
2023-01-02T19:18:47.684Z,10.60
2023-01-02T19:21:35.850Z,10.50
2023-01-02T19:24:22.522Z,10.50
2023-01-02T19:26:59.464Z,10.40
2023-01-02T19:29:30.467Z,10.40
2023-01-02T19:32:04.866Z,10.30
2023-01-02T19:34:37.722Z,10.30
2023-01-02T19:37:13.130Z,10.20
2023-01-02T19:39:56.110Z,10.10
2023-01-02T19:42:29.750Z,10.20
2023-01-02T19:45:23.671Z,10.10
2023-01-02T19:47:51.697Z,10.10
2023-01-02T19:50:22.901Z,10.10
2023-01-02T19:52:51.787Z,10.00
2023-01-02T19:55:19.448Z,10.00
2023-01-02T19:57:50.533Z,10.00
2023-01-02T20:00:19.567Z,10.00
2023-01-02T20:02:52.362Z,10.00
2023-01-02T20:05:23.279Z,10.00
2023-01-02T20:07:53.234Z,10.00
2023-01-02T20:10:21.052Z,10.00
2023-01-02T20:12:55.185Z,10.00
2023-01-02T20:15:26.790Z,10.00
2023-01-02T20:17:54.356Z,10.00
2023-01-02T20:20:27.994Z,9.90
2023-01-02T20:22:55.526Z,9.90
2023-01-02T20:25:25.318Z,9.90
2023-01-02T20:27:54.177Z,9.90
2023-01-02T20:30:27.871Z,9.80
2023-01-02T20:33:01.377Z,9.80
2023-01-02T20:35:28.455Z,9.70
2023-01-02T20:37:57.550Z,9.70
2023-01-02T20:40:24.611Z,9.70
2023-01-02T20:42:51.560Z,9.60
2023-01-02T20:45:21.575Z,9.60
2023-01-02T20:47:49.125Z,9.60
2023-01-02T20:50:16.391Z,9.60
2023-01-02T20:52:43.465Z,9.50
2023-01-02T20:55:10.868Z,9.50
2023-01-02T20:57:37.796Z,9.50
2023-01-02T21:00:09.687Z,9.50
2023-01-02T21:02:37.023Z,9.40
2023-01-02T21:05:04.726Z,9.40
2023-01-02T21:07:31.785Z,9.40
2023-01-02T21:10:00.963Z,9.40
2023-01-02T21:12:46.769Z,9.30
2023-01-02T21:15:34.790Z,9.30
2023-01-02T21:18:06.544Z,9.30
2023-01-02T21:20:34.736Z,9.20
2023-01-02T21:23:01.897Z,9.10
2023-01-02T21:25:33.729Z,9.00
2023-01-02T21:28:04.115Z,9.00
2023-01-02T21:30:33.549Z,8.90
2023-01-02T21:33:03.140Z,8.90
2023-01-02T21:35:32.730Z,8.90
2023-01-02T21:38:02.258Z,8.90
2023-01-02T21:40:30.035Z,8.90
2023-01-02T21:42:57.002Z,8.90
2023-01-02T21:45:26.345Z,8.90
2023-01-02T21:47:57.512Z,8.90
2023-01-02T21:50:25.556Z,8.90
2023-01-02T21:52:54.653Z,8.80
2023-01-02T21:55:23.379Z,8.80
2023-01-02T21:58:14.608Z,8.80
2023-01-02T22:00:42.613Z,8.90
2023-01-02T22:03:10.845Z,8.90
2023-01-02T22:05:40.340Z,8.90
2023-01-02T22:08:07.667Z,8.90
2023-01-02T22:10:35.203Z,8.90
2023-01-02T22:13:02.112Z,8.80
2023-01-02T22:15:29.095Z,8.90
2023-01-02T22:17:58.147Z,8.90
2023-01-02T22:20:25.250Z,8.90
2023-01-02T22:22:52.280Z,9.00
2023-01-02T22:25:19.217Z,9.10
2023-01-02T22:27:46.305Z,9.10
2023-01-02T22:30:27.261Z,9.10
2023-01-02T22:33:02.944Z,9.10
2023-01-02T22:35:30.321Z,9.10
2023-01-02T22:37:59.629Z,9.00
2023-01-02T22:40:29.621Z,9.00
2023-01-02T22:43:01.071Z,8.90
2023-01-02T22:45:33.995Z,8.90
2023-01-02T22:48:05.498Z,8.80
2023-01-02T22:50:42.970Z,8.80
2023-01-02T22:53:25.816Z,8.70
2023-01-02T22:55:53.434Z,8.70
2023-01-02T22:58:22.518Z,8.70
2023-01-02T23:01:02.261Z,8.60
2023-01-02T23:03:32.033Z,8.60
2023-01-02T23:05:58.969Z,8.60
2023-01-02T23:08:26.060Z,8.60
2023-01-02T23:10:53.053Z,8.50
2023-01-02T23:13:26.941Z,8.50
2023-01-02T23:16:12.379Z,8.50
2023-01-02T23:18:57.873Z,8.50
2023-01-02T23:21:30.159Z,8.40
2023-01-02T23:24:00.190Z,8.50
2023-01-02T23:26:35.445Z,8.40
2023-01-02T23:29:06.964Z,8.40
2023-01-02T23:31:43.810Z,8.40
2023-01-02T23:34:16.439Z,8.40
2023-01-02T23:36:44.119Z,8.30
2023-01-02T23:39:15.032Z,8.30
2023-01-02T23:41:43.617Z,8.20
2023-01-02T23:44:12.637Z,8.20
2023-01-02T23:46:40.984Z,8.10
2023-01-02T23:49:09.884Z,8.10
2023-01-02T23:51:37.553Z,8.00
2023-01-02T23:54:05.599Z,8.00
2023-01-02T23:56:35.641Z,8.00
2023-01-02T23:59:05.528Z,8.00
